Archival Weather

Chicago O'Hare International

Chicago, Illinois (KORD)

Report from: Saturday, March 5, 2022 1:51 AM CST
Current time: Saturday, February 4, 2023 11:22 PM CST

Current weather
Weather history
Weather forecast

Temperature5.0°C (41.0°F)
Wind chill2.8°C (37.1°F)
Dew point-5.0°C (23.0°F)
Winds 5 kts (2.6 m/s, 5.8 mph) Southeast (140°)
Visibility10 mi. (16.1 km)
Clouds Ceiling: Overcast 15,000 ft. (4,572 m)
Altimeter30.06 in.Hg (1018 mB)
Relative humidity48 %
Density altitude-1,300 ft. (-396 m)
Sea-level pressure101.8 kPa (1018 mB, 30.07 in.Hg)
Remarks Automated weather observing station with precipitation discriminator
Flight conditions Visual Meteorological Conditions
Raw dataKORD 050751Z 14005KT 10SM OVC150 05/M05 A3006 RMK AO2 SLP184 T00501050
An unhandled exception has occurred. See browser dev tools for details. Reload 🗙